Skip Navigation LinksHome page > Weather > Current weather Skip Navigation Links

Current Weather

Chicago O'Hare Intl, Chicago

For information only: do not use for flight planning or navigation.
Latest weather
Observation time Thursday, November 21, 2019 1:51 PM CST
Local time Thursday, November 21, 2019 2:00 PM CST
Flight conditions Marginal Visual Meteorological Conditions
Winds
Wind direction West (260°)
Wind speed 24 mph
Wind gusting to 37 mph
Peak wind speed 49 mph, 1:04 PM
Peak wind direction West-Southwest (250°)
Visibility 10 mi.
Sky condition
Ceiling 1,800 ft. overcast
Cloud layer overcast 1,800 ft.
Temperature 52°F
Dewpoint 46°F
Altimeter 29.67 in.Hg
Derived measurements
Relative humidity 80%
Density altitude 644 ft.
Sea-level pressure 29.68 in.Hg
Remarks
Automated weather observing station with precipitation discriminator.
METAR KORD 211951Z 26021G32KT 10SM OVC018 11/08 A2967 RMK AO2 PK WND 25043/1904 SLP051 T01110078

Settings

Location code

InnerDrive.Weather 4.0.6770.0 Release CLR 4.0.30319.42000
Copyright ©2018 Inner Drive Technology. All rights reserved. Portions Copyright ©1986-2018 David Braverman.

Find weather

Site navigation


Skip Navigation Links

Place info

Page info

PayPal - The safer, easier way to pay online!

Return home.

Copyright ©2019 Inner Drive Technology. Purveyors of fine, hand-crafted computer software. Page printed 2019-11-21T20:00:41 UTC.